Terminal Aerodrome Forecast
Issued by NWS

Home | Current Version | Previous Version | Text Only | Print | Product List | Glossary On
Versions: 1 2 3 4 5 6 7 8 9 10 11 12 13 14 15
000
FTPQ31 PGUM 162329
TAFGUM
TAF

TAF
PGRO 162329Z 1700/1724 VRB06KT P6SM VCSH FEW017 SCT040 BKN100
      TEMPO 1702/1706 6SM -SHRA SCT015 OVC030=

USA.gov is the U.S. government's official web portal to all federal, state and local government web resources and services.